sensor_id;sensor_type;location;lat;lon;timestamp;P1;durP1;ratioP1;P2;durP2;ratioP2
15841;SDS011;8021;48.022;11.812;2023-07-24T00:02:16;0.20;;;0.20;;
15841;SDS011;8021;48.022;11.812;2023-07-24T00:04:44;0.20;;;0.20;;
15841;SDS011;8021;48.022;11.812;2023-07-24T00:07:11;0.10;;;0.10;;
15841;SDS011;8021;48.022;11.812;2023-07-24T00:09:39;0.10;;;0.10;;
15841;SDS011;8021;48.022;11.812;2023-07-24T00:12:06;0.20;;;0.20;;
15841;SDS011;8021;48.022;11.812;2023-07-24T00:14:35;0.20;;;0.20;;
15841;SDS011;8021;48.022;11.812;2023-07-24T00:17:03;0.20;;;0.20;;
15841;SDS011;8021;48.022;11.812;2023-07-24T00:19:30;0.10;;;0.10;;
15841;SDS011;8021;48.022;11.812;2023-07-24T00:21:58;0.20;;;0.20;;
15841;SDS011;8021;48.022;11.812;2023-07-24T00:24:25;0.20;;;0.20;;
15841;SDS011;8021;48.022;11.812;2023-07-24T00:26:53;0.15;;;0.15;;
15841;SDS011;8021;48.022;11.812;2023-07-24T00:29:20;0.10;;;0.10;;
15841;SDS011;8021;48.022;11.812;2023-07-24T00:31:49;0.10;;;0.10;;
15841;SDS011;8021;48.022;11.812;2023-07-24T00:34:17;0.10;;;0.10;;
15841;SDS011;8021;48.022;11.812;2023-07-24T00:36:44;0.15;;;0.15;;
15841;SDS011;8021;48.022;11.812;2023-07-24T00:39:13;0.10;;;0.10;;
15841;SDS011;8021;48.022;11.812;2023-07-24T00:41:41;0.10;;;0.10;;
15841;SDS011;8021;48.022;11.812;2023-07-24T00:44:08;0.10;;;0.10;;
15841;SDS011;8021;48.022;11.812;2023-07-24T00:46:36;0.20;;;0.20;;
15841;SDS011;8021;48.022;11.812;2023-07-24T00:49:05;0.10;;;0.10;;
15841;SDS011;8021;48.022;11.812;2023-07-24T00:51:33;0.10;;;0.10;;
15841;SDS011;8021;48.022;11.812;2023-07-24T00:54:01;0.20;;;0.20;;
15841;SDS011;8021;48.022;11.812;2023-07-24T00:56:29;0.10;;;0.10;;
15841;SDS011;8021;48.022;11.812;2023-07-24T00:58:58;0.10;;;0.10;;
15841;SDS011;8021;48.022;11.812;2023-07-24T01:01:26;0.15;;;0.15;;
15841;SDS011;8021;48.022;11.812;2023-07-24T01:03:54;0.13;;;0.13;;
15841;SDS011;8021;48.022;11.812;2023-07-24T01:06:25;0.10;;;0.10;;
15841;SDS011;8021;48.022;11.812;2023-07-24T01:08:54;0.10;;;0.10;;
15841;SDS011;8021;48.022;11.812;2023-07-24T01:11:24;0.20;;;0.17;;
15841;SDS011;8021;48.022;11.812;2023-07-24T01:13:53;0.15;;;0.15;;
15841;SDS011;8021;48.022;11.812;2023-07-24T01:16:23;0.20;;;0.20;;
15841;SDS011;8021;48.022;11.812;2023-07-24T01:18:53;0.20;;;0.20;;
15841;SDS011;8021;48.022;11.812;2023-07-24T01:21:25;0.20;;;0.20;;
15841;SDS011;8021;48.022;11.812;2023-07-24T01:24:02;0.10;;;0.10;;
15841;SDS011;8021;48.022;11.812;2023-07-24T01:26:31;0.10;;;0.10;;
15841;SDS011;8021;48.022;11.812;2023-07-24T01:28:59;0.20;;;0.20;;
15841;SDS011;8021;48.022;11.812;2023-07-24T01:31:27;0.10;;;0.10;;
15841;SDS011;8021;48.022;11.812;2023-07-24T01:33:54;0.10;;;0.10;;
15841;SDS011;8021;48.022;11.812;2023-07-24T01:36:22;0.20;;;0.20;;
15841;SDS011;8021;48.022;11.812;2023-07-24T01:38:49;0.10;;;0.10;;
15841;SDS011;8021;48.022;11.812;2023-07-24T01:41:17;0.20;;;0.20;;
15841;SDS011;8021;48.022;11.812;2023-07-24T01:43:47;0.13;;;0.10;;
15841;SDS011;8021;48.022;11.812;2023-07-24T01:46:14;0.20;;;0.20;;
15841;SDS011;8021;48.022;11.812;2023-07-24T01:48:42;0.20;;;0.20;;
15841;SDS011;8021;48.022;11.812;2023-07-24T01:51:10;0.20;;;0.20;;
15841;SDS011;8021;48.022;11.812;2023-07-24T01:53:37;0.20;;;0.20;;
15841;SDS011;8021;48.022;11.812;2023-07-24T01:56:05;0.10;;;0.10;;
15841;SDS011;8021;48.022;11.812;2023-07-24T01:58:32;0.20;;;0.20;;
15841;SDS011;8021;48.022;11.812;2023-07-24T02:01:01;0.20;;;0.10;;
15841;SDS011;8021;48.022;11.812;2023-07-24T02:03:28;0.20;;;0.20;;
15841;SDS011;8021;48.022;11.812;2023-07-24T02:05:56;0.20;;;0.20;;
15841;SDS011;8021;48.022;11.812;2023-07-24T02:08:24;0.13;;;0.13;;
15841;SDS011;8021;48.022;11.812;2023-07-24T02:10:51;0.10;;;0.10;;
15841;SDS011;8021;48.022;11.812;2023-07-24T02:13:19;0.20;;;0.20;;
15841;SDS011;8021;48.022;11.812;2023-07-24T02:15:49;0.20;;;0.15;;
15841;SDS011;8021;48.022;11.812;2023-07-24T02:18:18;0.20;;;0.20;;
15841;SDS011;8021;48.022;11.812;2023-07-24T02:20:49;0.20;;;0.20;;
15841;SDS011;8021;48.022;11.812;2023-07-24T02:23:17;0.10;;;0.10;;
15841;SDS011;8021;48.022;11.812;2023-07-24T02:25:45;0.20;;;0.20;;
15841;SDS011;8021;48.022;11.812;2023-07-24T02:28:12;0.20;;;0.20;;
15841;SDS011;8021;48.022;11.812;2023-07-24T02:30:40;0.20;;;0.10;;
15841;SDS011;8021;48.022;11.812;2023-07-24T02:33:07;0.10;;;0.10;;
15841;SDS011;8021;48.022;11.812;2023-07-24T02:35:39;0.10;;;0.10;;
15841;SDS011;8021;48.022;11.812;2023-07-24T02:38:07;0.10;;;0.10;;
15841;SDS011;8021;48.022;11.812;2023-07-24T02:40:35;0.20;;;0.20;;
15841;SDS011;8021;48.022;11.812;2023-07-24T02:43:02;0.15;;;0.10;;
15841;SDS011;8021;48.022;11.812;2023-07-24T02:45:33;0.20;;;0.20;;
15841;SDS011;8021;48.022;11.812;2023-07-24T02:48:01;0.20;;;0.20;;
15841;SDS011;8021;48.022;11.812;2023-07-24T02:50:29;0.20;;;0.20;;
15841;SDS011;8021;48.022;11.812;2023-07-24T02:52:58;0.20;;;0.20;;
15841;SDS011;8021;48.022;11.812;2023-07-24T02:55:25;0.10;;;0.10;;
15841;SDS011;8021;48.022;11.812;2023-07-24T02:57:53;0.20;;;0.20;;
15841;SDS011;8021;48.022;11.812;2023-07-24T03:00:20;0.20;;;0.20;;
15841;SDS011;8021;48.022;11.812;2023-07-24T03:02:48;0.20;;;0.20;;
15841;SDS011;8021;48.022;11.812;2023-07-24T03:05:16;0.20;;;0.20;;
15841;SDS011;8021;48.022;11.812;2023-07-24T03:07:43;0.20;;;0.20;;
15841;SDS011;8021;48.022;11.812;2023-07-24T03:10:12;0.10;;;0.10;;
15841;SDS011;8021;48.022;11.812;2023-07-24T03:12:39;0.20;;;0.20;;
15841;SDS011;8021;48.022;11.812;2023-07-24T03:15:07;0.20;;;0.20;;
15841;SDS011;8021;48.022;11.812;2023-07-24T03:17:35;0.10;;;0.10;;
15841;SDS011;8021;48.022;11.812;2023-07-24T03:20:09;0.10;;;0.10;;
15841;SDS011;8021;48.022;11.812;2023-07-24T03:22:37;0.20;;;0.20;;
15841;SDS011;8021;48.022;11.812;2023-07-24T03:25:06;0.10;;;0.10;;
15841;SDS011;8021;48.022;11.812;2023-07-24T03:27:35;0.10;;;0.10;;
15841;SDS011;8021;48.022;11.812;2023-07-24T03:30:03;0.10;;;0.10;;
15841;SDS011;8021;48.022;11.812;2023-07-24T03:32:30;0.10;;;0.10;;
15841;SDS011;8021;48.022;11.812;2023-07-24T03:34:58;0.17;;;0.17;;
15841;SDS011;8021;48.022;11.812;2023-07-24T03:37:25;0.20;;;0.20;;
15841;SDS011;8021;48.022;11.812;2023-07-24T03:39:53;0.20;;;0.20;;
15841;SDS011;8021;48.022;11.812;2023-07-24T03:42:24;0.20;;;0.20;;
15841;SDS011;8021;48.022;11.812;2023-07-24T03:44:54;0.10;;;0.10;;
15841;SDS011;8021;48.022;11.812;2023-07-24T03:47:21;0.20;;;0.20;;
15841;SDS011;8021;48.022;11.812;2023-07-24T03:49:49;0.20;;;0.20;;
15841;SDS011;8021;48.022;11.812;2023-07-24T03:52:17;0.20;;;0.20;;
15841;SDS011;8021;48.022;11.812;2023-07-24T03:54:44;0.15;;;0.10;;
15841;SDS011;8021;48.022;11.812;2023-07-24T03:57:12;0.17;;;0.10;;
15841;SDS011;8021;48.022;11.812;2023-07-24T03:59:39;0.20;;;0.20;;
15841;SDS011;8021;48.022;11.812;2023-07-24T04:02:08;0.22;;;0.22;;
15841;SDS011;8021;48.022;11.812;2023-07-24T04:04:36;0.20;;;0.10;;
15841;SDS011;8021;48.022;11.812;2023-07-24T04:07:03;0.20;;;0.15;;
15841;SDS011;8021;48.022;11.812;2023-07-24T04:09:31;0.20;;;0.13;;
15841;SDS011;8021;48.022;11.812;2023-07-24T04:11:58;0.20;;;0.10;;
15841;SDS011;8021;48.022;11.812;2023-07-24T04:14:26;0.20;;;0.10;;
15841;SDS011;8021;48.022;11.812;2023-07-24T04:16:53;0.17;;;0.17;;
15841;SDS011;8021;48.022;11.812;2023-07-24T04:19:23;0.20;;;0.20;;
15841;SDS011;8021;48.022;11.812;2023-07-24T04:21:50;0.10;;;0.10;;
15841;SDS011;8021;48.022;11.812;2023-07-24T04:24:18;0.10;;;0.10;;
15841;SDS011;8021;48.022;11.812;2023-07-24T04:26:46;0.17;;;0.17;;
15841;SDS011;8021;48.022;11.812;2023-07-24T04:29:14;0.10;;;0.10;;
15841;SDS011;8021;48.022;11.812;2023-07-24T04:31:41;0.20;;;0.20;;
15841;SDS011;8021;48.022;11.812;2023-07-24T04:34:09;0.10;;;0.10;;
15841;SDS011;8021;48.022;11.812;2023-07-24T04:36:37;0.10;;;0.10;;
15841;SDS011;8021;48.022;11.812;2023-07-24T04:39:05;0.20;;;0.20;;
15841;SDS011;8021;48.022;11.812;2023-07-24T04:41:32;0.10;;;0.10;;
15841;SDS011;8021;48.022;11.812;2023-07-24T04:44:00;0.20;;;0.20;;
15841;SDS011;8021;48.022;11.812;2023-07-24T04:46:27;0.20;;;0.20;;
15841;SDS011;8021;48.022;11.812;2023-07-24T04:48:56;0.20;;;0.20;;
15841;SDS011;8021;48.022;11.812;2023-07-24T04:51:23;0.20;;;0.20;;
15841;SDS011;8021;48.022;11.812;2023-07-24T04:53:53;0.20;;;0.20;;
15841;SDS011;8021;48.022;11.812;2023-07-24T04:56:20;0.20;;;0.20;;
15841;SDS011;8021;48.022;11.812;2023-07-24T04:58:48;0.20;;;0.20;;
15841;SDS011;8021;48.022;11.812;2023-07-24T05:01:15;0.20;;;0.20;;
15841;SDS011;8021;48.022;11.812;2023-07-24T05:03:43;0.20;;;0.20;;
15841;SDS011;8021;48.022;11.812;2023-07-24T05:06:10;0.17;;;0.17;;
15841;SDS011;8021;48.022;11.812;2023-07-24T05:08:38;0.20;;;0.20;;
15841;SDS011;8021;48.022;11.812;2023-07-24T05:11:07;0.10;;;0.10;;
15841;SDS011;8021;48.022;11.812;2023-07-24T05:13:34;0.10;;;0.10;;
15841;SDS011;8021;48.022;11.812;2023-07-24T05:16:02;0.10;;;0.10;;
15841;SDS011;8021;48.022;11.812;2023-07-24T05:18:30;0.08;;;0.08;;
15841;SDS011;8021;48.022;11.812;2023-07-24T05:20:57;0.10;;;0.10;;
15841;SDS011;8021;48.022;11.812;2023-07-24T05:23:25;0.00;;;0.00;;
15841;SDS011;8021;48.022;11.812;2023-07-24T05:25:56;0.00;;;0.00;;
15841;SDS011;8021;48.022;11.812;2023-07-24T05:28:26;0.03;;;0.00;;
15841;SDS011;8021;48.022;11.812;2023-07-24T05:30:53;0.00;;;0.00;;
15841;SDS011;8021;48.022;11.812;2023-07-24T05:33:21;0.00;;;0.00;;
15841;SDS011;8021;48.022;11.812;2023-07-24T05:35:49;0.00;;;0.00;;
15841;SDS011;8021;48.022;11.812;2023-07-24T05:38:16;0.00;;;0.00;;
15841;SDS011;8021;48.022;11.812;2023-07-24T05:40:44;0.00;;;0.00;;
15841;SDS011;8021;48.022;11.812;2023-07-24T05:43:11;0.00;;;0.00;;
15841;SDS011;8021;48.022;11.812;2023-07-24T05:45:40;0.00;;;0.00;;
15841;SDS011;8021;48.022;11.812;2023-07-24T05:48:07;0.00;;;0.00;;
15841;SDS011;8021;48.022;11.812;2023-07-24T05:50:35;0.00;;;0.00;;
15841;SDS011;8021;48.022;11.812;2023-07-24T05:53:02;0.00;;;0.00;;
15841;SDS011;8021;48.022;11.812;2023-07-24T05:55:30;0.00;;;0.00;;
15841;SDS011;8021;48.022;11.812;2023-07-24T05:57:57;0.00;;;0.00;;
15841;SDS011;8021;48.022;11.812;2023-07-24T06:00:25;0.00;;;0.00;;
15841;SDS011;8021;48.022;11.812;2023-07-24T06:02:54;0.00;;;0.00;;
15841;SDS011;8021;48.022;11.812;2023-07-24T06:05:22;0.00;;;0.00;;
15841;SDS011;8021;48.022;11.812;2023-07-24T06:07:50;0.00;;;0.00;;
15841;SDS011;8021;48.022;11.812;2023-07-24T06:10:17;0.00;;;0.00;;
15841;SDS011;8021;48.022;11.812;2023-07-24T06:12:45;0.00;;;0.00;;
15841;SDS011;8021;48.022;11.812;2023-07-24T06:15:13;0.00;;;0.00;;
15841;SDS011;8021;48.022;11.812;2023-07-24T06:17:41;0.00;;;0.00;;
15841;SDS011;8021;48.022;11.812;2023-07-24T06:20:10;0.00;;;0.00;;
15841;SDS011;8021;48.022;11.812;2023-07-24T06:22:37;0.00;;;0.00;;
15841;SDS011;8021;48.022;11.812;2023-07-24T06:25:05;0.00;;;0.00;;
15841;SDS011;8021;48.022;11.812;2023-07-24T06:27:32;0.00;;;0.00;;
15841;SDS011;8021;48.022;11.812;2023-07-24T06:30:06;0.00;;;0.00;;
15841;SDS011;8021;48.022;11.812;2023-07-24T06:32:41;0.00;;;0.00;;
15841;SDS011;8021;48.022;11.812;2023-07-24T06:35:10;0.00;;;0.00;;
15841;SDS011;8021;48.022;11.812;2023-07-24T06:37:37;0.00;;;0.00;;
15841;SDS011;8021;48.022;11.812;2023-07-24T06:40:06;0.00;;;0.00;;
15841;SDS011;8021;48.022;11.812;2023-07-24T06:42:35;0.00;;;0.00;;
15841;SDS011;8021;48.022;11.812;2023-07-24T06:45:03;0.00;;;0.00;;
15841;SDS011;8021;48.022;11.812;2023-07-24T06:47:33;0.00;;;0.00;;
15841;SDS011;8021;48.022;11.812;2023-07-24T06:50:01;0.00;;;0.00;;
15841;SDS011;8021;48.022;11.812;2023-07-24T06:52:32;0.00;;;0.00;;
15841;SDS011;8021;48.022;11.812;2023-07-24T06:54:59;0.00;;;0.00;;
15841;SDS011;8021;48.022;11.812;2023-07-24T06:57:27;0.00;;;0.00;;
15841;SDS011;8021;48.022;11.812;2023-07-24T06:59:54;0.00;;;0.00;;
15841;SDS011;8021;48.022;11.812;2023-07-24T07:02:22;0.00;;;0.00;;
15841;SDS011;8021;48.022;11.812;2023-07-24T07:04:49;0.00;;;0.00;;
15841;SDS011;8021;48.022;11.812;2023-07-24T07:07:17;0.00;;;0.00;;
15841;SDS011;8021;48.022;11.812;2023-07-24T07:09:46;0.00;;;0.00;;
15841;SDS011;8021;48.022;11.812;2023-07-24T07:12:13;0.00;;;0.00;;
15841;SDS011;8021;48.022;11.812;2023-07-24T07:14:41;0.00;;;0.00;;
15841;SDS011;8021;48.022;11.812;2023-07-24T07:17:08;0.00;;;0.00;;
15841;SDS011;8021;48.022;11.812;2023-07-24T07:19:36;0.00;;;0.00;;
15841;SDS011;8021;48.022;11.812;2023-07-24T07:22:03;0.00;;;0.00;;
15841;SDS011;8021;48.022;11.812;2023-07-24T07:24:31;0.00;;;0.00;;
15841;SDS011;8021;48.022;11.812;2023-07-24T07:27:00;0.00;;;0.00;;
15841;SDS011;8021;48.022;11.812;2023-07-24T07:29:27;0.00;;;0.00;;
15841;SDS011;8021;48.022;11.812;2023-07-24T07:31:55;0.00;;;0.00;;
15841;SDS011;8021;48.022;11.812;2023-07-24T07:34:22;0.00;;;0.00;;
15841;SDS011;8021;48.022;11.812;2023-07-24T07:36:50;0.00;;;0.00;;
15841;SDS011;8021;48.022;11.812;2023-07-24T07:39:17;0.00;;;0.00;;
15841;SDS011;8021;48.022;11.812;2023-07-24T07:41:45;0.00;;;0.00;;
15841;SDS011;8021;48.022;11.812;2023-07-24T07:44:14;0.00;;;0.00;;
15841;SDS011;8021;48.022;11.812;2023-07-24T07:46:41;0.00;;;0.00;;
15841;SDS011;8021;48.022;11.812;2023-07-24T07:49:09;0.00;;;0.00;;
15841;SDS011;8021;48.022;11.812;2023-07-24T07:51:36;0.05;;;0.00;;
15841;SDS011;8021;48.022;11.812;2023-07-24T07:54:03;0.00;;;0.00;;
15841;SDS011;8021;48.022;11.812;2023-07-24T07:56:31;0.00;;;0.00;;
15841;SDS011;8021;48.022;11.812;2023-07-24T07:58:58;0.10;;;0.03;;
15841;SDS011;8021;48.022;11.812;2023-07-24T08:01:27;0.00;;;0.00;;
15841;SDS011;8021;48.022;11.812;2023-07-24T08:03:55;0.00;;;0.00;;
15841;SDS011;8021;48.022;11.812;2023-07-24T08:06:22;0.00;;;0.00;;
15841;SDS011;8021;48.022;11.812;2023-07-24T08:08:50;0.00;;;0.00;;
15841;SDS011;8021;48.022;11.812;2023-07-24T08:11:18;0.00;;;0.00;;
15841;SDS011;8021;48.022;11.812;2023-07-24T08:13:45;0.00;;;0.00;;
15841;SDS011;8021;48.022;11.812;2023-07-24T08:16:13;0.10;;;0.00;;
15841;SDS011;8021;48.022;11.812;2023-07-24T08:18:46;0.10;;;0.08;;
15841;SDS011;8021;48.022;11.812;2023-07-24T08:21:14;0.00;;;0.00;;
15841;SDS011;8021;48.022;11.812;2023-07-24T08:23:41;0.00;;;0.00;;
15841;SDS011;8021;48.022;11.812;2023-07-24T08:26:09;0.10;;;0.05;;
15841;SDS011;8021;48.022;11.812;2023-07-24T08:28:36;0.00;;;0.00;;
15841;SDS011;8021;48.022;11.812;2023-07-24T08:31:08;0.00;;;0.00;;
15841;SDS011;8021;48.022;11.812;2023-07-24T08:33:36;0.00;;;0.00;;
15841;SDS011;8021;48.022;11.812;2023-07-24T08:36:05;0.00;;;0.00;;
15841;SDS011;8021;48.022;11.812;2023-07-24T08:38:33;0.00;;;0.00;;
15841;SDS011;8021;48.022;11.812;2023-07-24T08:43:31;0.00;;;0.00;;
15841;SDS011;8021;48.022;11.812;2023-07-24T08:45:59;0.10;;;0.00;;
15841;SDS011;8021;48.022;11.812;2023-07-24T08:48:27;0.00;;;0.00;;
15841;SDS011;8021;48.022;11.812;2023-07-24T08:50:56;0.00;;;0.00;;
15841;SDS011;8021;48.022;11.812;2023-07-24T08:53:26;0.00;;;0.00;;
15841;SDS011;8021;48.022;11.812;2023-07-24T08:55:55;0.00;;;0.00;;
15841;SDS011;8021;48.022;11.812;2023-07-24T08:58:23;0.00;;;0.00;;
15841;SDS011;8021;48.022;11.812;2023-07-24T09:00:50;0.00;;;0.00;;
15841;SDS011;8021;48.022;11.812;2023-07-24T09:03:18;0.00;;;0.00;;
15841;SDS011;8021;48.022;11.812;2023-07-24T09:05:46;0.00;;;0.00;;
15841;SDS011;8021;48.022;11.812;2023-07-24T09:08:14;0.05;;;0.05;;
15841;SDS011;8021;48.022;11.812;2023-07-24T09:10:42;0.10;;;0.10;;
15841;SDS011;8021;48.022;11.812;2023-07-24T09:13:15;0.00;;;0.00;;
15841;SDS011;8021;48.022;11.812;2023-07-24T09:15:43;0.10;;;0.10;;
15841;SDS011;8021;48.022;11.812;2023-07-24T09:18:11;0.10;;;0.10;;
15841;SDS011;8021;48.022;11.812;2023-07-24T09:20:39;0.10;;;0.10;;
15841;SDS011;8021;48.022;11.812;2023-07-24T09:23:09;0.03;;;0.03;;
15841;SDS011;8021;48.022;11.812;2023-07-24T09:25:43;0.10;;;0.10;;
15841;SDS011;8021;48.022;11.812;2023-07-24T09:28:12;0.10;;;0.10;;
15841;SDS011;8021;48.022;11.812;2023-07-24T09:30:39;0.00;;;0.00;;
15841;SDS011;8021;48.022;11.812;2023-07-24T09:33:07;0.10;;;0.10;;
15841;SDS011;8021;48.022;11.812;2023-07-24T09:35:35;0.00;;;0.00;;
15841;SDS011;8021;48.022;11.812;2023-07-24T09:38:03;0.00;;;0.00;;
15841;SDS011;8021;48.022;11.812;2023-07-24T09:40:38;0.00;;;0.00;;
15841;SDS011;8021;48.022;11.812;2023-07-24T09:43:20;0.00;;;0.00;;
15841;SDS011;8021;48.022;11.812;2023-07-24T09:46:07;0.00;;;0.00;;
15841;SDS011;8021;48.022;11.812;2023-07-24T09:48:36;0.00;;;0.00;;
15841;SDS011;8021;48.022;11.812;2023-07-24T09:51:08;0.00;;;0.00;;
15841;SDS011;8021;48.022;11.812;2023-07-24T09:53:38;0.10;;;0.00;;
15841;SDS011;8021;48.022;11.812;2023-07-24T09:56:06;0.00;;;0.00;;
15841;SDS011;8021;48.022;11.812;2023-07-24T09:58:35;0.00;;;0.00;;
15841;SDS011;8021;48.022;11.812;2023-07-24T10:01:04;0.00;;;0.00;;
15841;SDS011;8021;48.022;11.812;2023-07-24T10:03:33;0.00;;;0.00;;
15841;SDS011;8021;48.022;11.812;2023-07-24T10:06:05;0.00;;;0.00;;
15841;SDS011;8021;48.022;11.812;2023-07-24T10:08:33;0.00;;;0.00;;
15841;SDS011;8021;48.022;11.812;2023-07-24T10:11:01;0.00;;;0.00;;
15841;SDS011;8021;48.022;11.812;2023-07-24T10:13:29;0.00;;;0.00;;
15841;SDS011;8021;48.022;11.812;2023-07-24T10:15:58;0.00;;;0.00;;
15841;SDS011;8021;48.022;11.812;2023-07-24T10:18:27;0.00;;;0.00;;
15841;SDS011;8021;48.022;11.812;2023-07-24T10:21:00;0.00;;;0.00;;
15841;SDS011;8021;48.022;11.812;2023-07-24T10:23:27;0.00;;;0.00;;
15841;SDS011;8021;48.022;11.812;2023-07-24T10:25:55;0.00;;;0.00;;
15841;SDS011;8021;48.022;11.812;2023-07-24T10:28:30;0.00;;;0.00;;
15841;SDS011;8021;48.022;11.812;2023-07-24T10:30:59;0.00;;;0.00;;
15841;SDS011;8021;48.022;11.812;2023-07-24T10:33:29;0.00;;;0.00;;
15841;SDS011;8021;48.022;11.812;2023-07-24T10:36:03;0.00;;;0.00;;
15841;SDS011;8021;48.022;11.812;2023-07-24T10:38:32;0.00;;;0.00;;
15841;SDS011;8021;48.022;11.812;2023-07-24T10:41:05;0.00;;;0.00;;
15841;SDS011;8021;48.022;11.812;2023-07-24T10:43:42;0.00;;;0.00;;
15841;SDS011;8021;48.022;11.812;2023-07-24T10:46:15;0.00;;;0.00;;
15841;SDS011;8021;48.022;11.812;2023-07-24T10:48:43;0.00;;;0.00;;
15841;SDS011;8021;48.022;11.812;2023-07-24T10:51:12;0.10;;;0.00;;
15841;SDS011;8021;48.022;11.812;2023-07-24T10:53:41;0.00;;;0.00;;
15841;SDS011;8021;48.022;11.812;2023-07-24T10:56:09;0.00;;;0.00;;
15841;SDS011;8021;48.022;11.812;2023-07-24T10:58:36;0.00;;;0.00;;
15841;SDS011;8021;48.022;11.812;2023-07-24T11:01:04;0.00;;;0.00;;
15841;SDS011;8021;48.022;11.812;2023-07-24T11:03:34;0.05;;;0.00;;
15841;SDS011;8021;48.022;11.812;2023-07-24T11:06:03;0.00;;;0.00;;
15841;SDS011;8021;48.022;11.812;2023-07-24T11:08:30;0.00;;;0.00;;
15841;SDS011;8021;48.022;11.812;2023-07-24T11:10:59;0.10;;;0.00;;
15841;SDS011;8021;48.022;11.812;2023-07-24T11:13:27;0.00;;;0.00;;
15841;SDS011;8021;48.022;11.812;2023-07-24T11:15:55;0.00;;;0.00;;
15841;SDS011;8021;48.022;11.812;2023-07-24T11:18:23;0.00;;;0.00;;
15841;SDS011;8021;48.022;11.812;2023-07-24T11:21:11;0.00;;;0.00;;
15841;SDS011;8021;48.022;11.812;2023-07-24T11:23:44;0.00;;;0.00;;
15841;SDS011;8021;48.022;11.812;2023-07-24T11:26:11;0.00;;;0.00;;
15841;SDS011;8021;48.022;11.812;2023-07-24T11:28:39;0.00;;;0.00;;
15841;SDS011;8021;48.022;11.812;2023-07-24T11:31:07;0.00;;;0.00;;
15841;SDS011;8021;48.022;11.812;2023-07-24T11:33:34;0.00;;;0.00;;
15841;SDS011;8021;48.022;11.812;2023-07-24T11:36:02;0.00;;;0.00;;
15841;SDS011;8021;48.022;11.812;2023-07-24T11:38:31;0.00;;;0.00;;
15841;SDS011;8021;48.022;11.812;2023-07-24T11:41:05;0.00;;;0.00;;
15841;SDS011;8021;48.022;11.812;2023-07-24T11:43:32;0.10;;;0.00;;
15841;SDS011;8021;48.022;11.812;2023-07-24T11:46:00;0.00;;;0.00;;
15841;SDS011;8021;48.022;11.812;2023-07-24T11:48:27;0.00;;;0.00;;
15841;SDS011;8021;48.022;11.812;2023-07-24T11:50:55;0.00;;;0.00;;
15841;SDS011;8021;48.022;11.812;2023-07-24T11:53:23;0.03;;;0.00;;
15841;SDS011;8021;48.022;11.812;2023-07-24T11:55:53;0.00;;;0.00;;
15841;SDS011;8021;48.022;11.812;2023-07-24T11:58:22;0.00;;;0.00;;
15841;SDS011;8021;48.022;11.812;2023-07-24T12:00:49;0.00;;;0.00;;
15841;SDS011;8021;48.022;11.812;2023-07-24T12:03:19;0.10;;;0.00;;
15841;SDS011;8021;48.022;11.812;2023-07-24T12:05:47;0.00;;;0.00;;
15841;SDS011;8021;48.022;11.812;2023-07-24T12:08:16;0.10;;;0.00;;
15841;SDS011;8021;48.022;11.812;2023-07-24T12:10:45;0.03;;;0.00;;
15841;SDS011;8021;48.022;11.812;2023-07-24T12:13:14;0.00;;;0.00;;
15841;SDS011;8021;48.022;11.812;2023-07-24T12:15:43;0.00;;;0.00;;
15841;SDS011;8021;48.022;11.812;2023-07-24T12:18:11;0.00;;;0.00;;
15841;SDS011;8021;48.022;11.812;2023-07-24T12:20:38;0.00;;;0.00;;
15841;SDS011;8021;48.022;11.812;2023-07-24T12:23:06;0.10;;;0.00;;
15841;SDS011;8021;48.022;11.812;2023-07-24T12:25:34;0.00;;;0.00;;
15841;SDS011;8021;48.022;11.812;2023-07-24T12:28:01;0.00;;;0.00;;
15841;SDS011;8021;48.022;11.812;2023-07-24T12:30:30;0.00;;;0.00;;
15841;SDS011;8021;48.022;11.812;2023-07-24T12:32:57;0.00;;;0.00;;
15841;SDS011;8021;48.022;11.812;2023-07-24T12:35:25;0.05;;;0.00;;
15841;SDS011;8021;48.022;11.812;2023-07-24T12:37:53;0.00;;;0.00;;
15841;SDS011;8021;48.022;11.812;2023-07-24T12:40:20;0.03;;;0.00;;
15841;SDS011;8021;48.022;11.812;2023-07-24T12:42:48;0.00;;;0.00;;
15841;SDS011;8021;48.022;11.812;2023-07-24T12:45:15;0.00;;;0.00;;
15841;SDS011;8021;48.022;11.812;2023-07-24T12:47:44;0.00;;;0.00;;
15841;SDS011;8021;48.022;11.812;2023-07-24T12:50:11;0.40;;;0.00;;
15841;SDS011;8021;48.022;11.812;2023-07-24T12:52:39;0.00;;;0.00;;
15841;SDS011;8021;48.022;11.812;2023-07-24T12:55:07;0.00;;;0.00;;
15841;SDS011;8021;48.022;11.812;2023-07-24T12:57:35;0.00;;;0.00;;
15841;SDS011;8021;48.022;11.812;2023-07-24T13:00:03;0.10;;;0.10;;
15841;SDS011;8021;48.022;11.812;2023-07-24T13:02:31;0.05;;;0.05;;
15841;SDS011;8021;48.022;11.812;2023-07-24T13:05:00;0.10;;;0.10;;
15841;SDS011;8021;48.022;11.812;2023-07-24T13:07:28;0.10;;;0.10;;
15841;SDS011;8021;48.022;11.812;2023-07-24T13:09:56;0.10;;;0.10;;
15841;SDS011;8021;48.022;11.812;2023-07-24T13:12:23;0.10;;;0.10;;
15841;SDS011;8021;48.022;11.812;2023-07-24T13:14:51;0.10;;;0.10;;
15841;SDS011;8021;48.022;11.812;2023-07-24T13:17:18;0.10;;;0.10;;
15841;SDS011;8021;48.022;11.812;2023-07-24T13:19:46;0.20;;;0.20;;
15841;SDS011;8021;48.022;11.812;2023-07-24T13:22:15;0.10;;;0.10;;
15841;SDS011;8021;48.022;11.812;2023-07-24T13:24:42;0.10;;;0.10;;
15841;SDS011;8021;48.022;11.812;2023-07-24T13:27:34;0.20;;;0.20;;
15841;SDS011;8021;48.022;11.812;2023-07-24T13:30:02;0.10;;;0.10;;
15841;SDS011;8021;48.022;11.812;2023-07-24T13:32:29;0.15;;;0.15;;
15841;SDS011;8021;48.022;11.812;2023-07-24T13:34:57;0.10;;;0.10;;
15841;SDS011;8021;48.022;11.812;2023-07-24T13:37:27;0.10;;;0.10;;
15841;SDS011;8021;48.022;11.812;2023-07-24T13:39:55;0.10;;;0.10;;
15841;SDS011;8021;48.022;11.812;2023-07-24T13:42:22;0.10;;;0.10;;
15841;SDS011;8021;48.022;11.812;2023-07-24T13:44:50;0.10;;;0.10;;
15841;SDS011;8021;48.022;11.812;2023-07-24T13:47:18;0.10;;;0.10;;
15841;SDS011;8021;48.022;11.812;2023-07-24T13:49:47;0.10;;;0.10;;
15841;SDS011;8021;48.022;11.812;2023-07-24T13:52:14;0.20;;;0.20;;
15841;SDS011;8021;48.022;11.812;2023-07-24T13:54:43;0.20;;;0.20;;
15841;SDS011;8021;48.022;11.812;2023-07-24T13:57:12;0.10;;;0.10;;
15841;SDS011;8021;48.022;11.812;2023-07-24T13:59:40;0.15;;;0.15;;
15841;SDS011;8021;48.022;11.812;2023-07-24T14:02:07;0.10;;;0.10;;
15841;SDS011;8021;48.022;11.812;2023-07-24T14:04:35;0.10;;;0.10;;
15841;SDS011;8021;48.022;11.812;2023-07-24T14:07:02;0.10;;;0.10;;
15841;SDS011;8021;48.022;11.812;2023-07-24T14:09:30;0.15;;;0.15;;
15841;SDS011;8021;48.022;11.812;2023-07-24T14:12:02;0.10;;;0.10;;
15841;SDS011;8021;48.022;11.812;2023-07-24T14:14:30;0.10;;;0.10;;
15841;SDS011;8021;48.022;11.812;2023-07-24T14:16:58;0.20;;;0.20;;
15841;SDS011;8021;48.022;11.812;2023-07-24T14:19:32;0.10;;;0.10;;
15841;SDS011;8021;48.022;11.812;2023-07-24T14:21:59;0.10;;;0.10;;
15841;SDS011;8021;48.022;11.812;2023-07-24T14:24:27;0.10;;;0.10;;
15841;SDS011;8021;48.022;11.812;2023-07-24T14:26:55;0.10;;;0.10;;
15841;SDS011;8021;48.022;11.812;2023-07-24T14:29:24;0.10;;;0.10;;
15841;SDS011;8021;48.022;11.812;2023-07-24T14:31:51;0.10;;;0.10;;
15841;SDS011;8021;48.022;11.812;2023-07-24T14:34:19;0.10;;;0.10;;
15841;SDS011;8021;48.022;11.812;2023-07-24T14:36:46;0.10;;;0.10;;
15841;SDS011;8021;48.022;11.812;2023-07-24T14:39:14;0.10;;;0.10;;
15841;SDS011;8021;48.022;11.812;2023-07-24T14:41:42;0.10;;;0.10;;
15841;SDS011;8021;48.022;11.812;2023-07-24T14:44:09;0.20;;;0.10;;
15841;SDS011;8021;48.022;11.812;2023-07-24T14:46:38;0.10;;;0.10;;
15841;SDS011;8021;48.022;11.812;2023-07-24T14:49:05;0.10;;;0.10;;
15841;SDS011;8021;48.022;11.812;2023-07-24T14:51:33;0.10;;;0.10;;
15841;SDS011;8021;48.022;11.812;2023-07-24T14:54:01;0.10;;;0.10;;
15841;SDS011;8021;48.022;11.812;2023-07-24T14:56:28;0.10;;;0.10;;
15841;SDS011;8021;48.022;11.812;2023-07-24T14:59:13;0.10;;;0.10;;